sensor_id;sensor_type;location;lat;lon;timestamp;P1;durP1;ratioP1;P2;durP2;ratioP2
31728;SDS011;18309;43.658;1.312;2023-03-03T00:00:42;59.72;;;29.83;;
31728;SDS011;18309;43.658;1.312;2023-03-03T00:03:09;67.40;;;29.52;;
31728;SDS011;18309;43.658;1.312;2023-03-03T00:05:39;62.17;;;31.88;;
31728;SDS011;18309;43.658;1.312;2023-03-03T00:08:05;65.00;;;33.05;;
31728;SDS011;18309;43.658;1.312;2023-03-03T00:10:31;62.88;;;31.58;;
31728;SDS011;18309;43.658;1.312;2023-03-03T00:12:56;63.35;;;31.23;;
31728;SDS011;18309;43.658;1.312;2023-03-03T00:15:23;69.40;;;31.98;;
31728;SDS011;18309;43.658;1.312;2023-03-03T00:17:49;66.88;;;32.50;;
31728;SDS011;18309;43.658;1.312;2023-03-03T00:20:35;70.03;;;34.65;;
31728;SDS011;18309;43.658;1.312;2023-03-03T00:25:59;64.65;;;33.20;;
31728;SDS011;18309;43.658;1.312;2023-03-03T00:28:31;62.22;;;31.38;;
31728;SDS011;18309;43.658;1.312;2023-03-03T00:31:21;62.45;;;32.00;;
31728;SDS011;18309;43.658;1.312;2023-03-03T00:36:47;57.45;;;29.88;;
31728;SDS011;18309;43.658;1.312;2023-03-03T00:41:53;60.67;;;30.63;;
31728;SDS011;18309;43.658;1.312;2023-03-03T00:44:29;67.53;;;31.08;;
31728;SDS011;18309;43.658;1.312;2023-03-03T00:52:34;62.17;;;30.80;;
31728;SDS011;18309;43.658;1.312;2023-03-03T00:55:02;62.22;;;29.17;;
31728;SDS011;18309;43.658;1.312;2023-03-03T00:57:29;60.80;;;31.17;;
31728;SDS011;18309;43.658;1.312;2023-03-03T00:59:55;58.50;;;29.52;;
31728;SDS011;18309;43.658;1.312;2023-03-03T01:02:21;60.17;;;31.15;;
31728;SDS011;18309;43.658;1.312;2023-03-03T01:04:50;56.53;;;29.98;;
31728;SDS011;18309;43.658;1.312;2023-03-03T01:07:17;62.08;;;31.75;;
31728;SDS011;18309;43.658;1.312;2023-03-03T01:09:43;60.50;;;30.15;;
31728;SDS011;18309;43.658;1.312;2023-03-03T01:12:10;64.55;;;31.80;;
31728;SDS011;18309;43.658;1.312;2023-03-03T01:14:36;60.08;;;29.63;;
31728;SDS011;18309;43.658;1.312;2023-03-03T01:17:03;63.03;;;30.48;;
31728;SDS011;18309;43.658;1.312;2023-03-03T01:19:29;59.70;;;30.08;;
31728;SDS011;18309;43.658;1.312;2023-03-03T01:21:55;57.72;;;30.10;;
31728;SDS011;18309;43.658;1.312;2023-03-03T01:24:21;60.80;;;30.33;;
31728;SDS011;18309;43.658;1.312;2023-03-03T01:26:47;62.83;;;31.00;;
31728;SDS011;18309;43.658;1.312;2023-03-03T01:29:12;66.68;;;32.53;;
31728;SDS011;18309;43.658;1.312;2023-03-03T01:31:38;57.75;;;31.30;;
31728;SDS011;18309;43.658;1.312;2023-03-03T01:34:04;61.35;;;30.52;;
31728;SDS011;18309;43.658;1.312;2023-03-03T01:36:31;61.47;;;30.73;;
31728;SDS011;18309;43.658;1.312;2023-03-03T01:38:58;57.42;;;28.60;;
31728;SDS011;18309;43.658;1.312;2023-03-03T01:41:27;56.47;;;30.50;;
31728;SDS011;18309;43.658;1.312;2023-03-03T01:43:58;62.33;;;31.95;;
31728;SDS011;18309;43.658;1.312;2023-03-03T01:48:58;59.03;;;30.88;;
31728;SDS011;18309;43.658;1.312;2023-03-03T01:51:52;59.88;;;30.77;;
31728;SDS011;18309;43.658;1.312;2023-03-03T01:54:23;60.70;;;30.08;;
31728;SDS011;18309;43.658;1.312;2023-03-03T01:57:15;56.33;;;28.98;;
31728;SDS011;18309;43.658;1.312;2023-03-03T01:59:47;58.55;;;30.42;;
31728;SDS011;18309;43.658;1.312;2023-03-03T02:02:15;54.72;;;28.45;;
31728;SDS011;18309;43.658;1.312;2023-03-03T02:04:41;60.20;;;31.08;;
31728;SDS011;18309;43.658;1.312;2023-03-03T02:07:07;60.72;;;30.48;;
31728;SDS011;18309;43.658;1.312;2023-03-03T02:12:10;62.08;;;31.42;;
31728;SDS011;18309;43.658;1.312;2023-03-03T02:14:37;61.53;;;29.67;;
31728;SDS011;18309;43.658;1.312;2023-03-03T02:17:03;57.95;;;29.98;;
31728;SDS011;18309;43.658;1.312;2023-03-03T02:22:17;73.82;;;31.45;;
31728;SDS011;18309;43.658;1.312;2023-03-03T02:24:50;69.00;;;31.33;;
31728;SDS011;18309;43.658;1.312;2023-03-03T02:27:20;60.97;;;30.58;;
31728;SDS011;18309;43.658;1.312;2023-03-03T02:29:46;56.92;;;29.90;;
31728;SDS011;18309;43.658;1.312;2023-03-03T02:32:12;58.85;;;29.02;;
31728;SDS011;18309;43.658;1.312;2023-03-03T02:34:45;56.65;;;29.90;;
31728;SDS011;18309;43.658;1.312;2023-03-03T02:37:13;56.65;;;29.83;;
31728;SDS011;18309;43.658;1.312;2023-03-03T02:39:39;55.10;;;29.60;;
31728;SDS011;18309;43.658;1.312;2023-03-03T02:42:07;61.00;;;30.08;;
31728;SDS011;18309;43.658;1.312;2023-03-03T02:44:45;58.42;;;30.60;;
31728;SDS011;18309;43.658;1.312;2023-03-03T02:47:11;57.80;;;29.38;;
31728;SDS011;18309;43.658;1.312;2023-03-03T02:49:37;63.25;;;30.25;;
31728;SDS011;18309;43.658;1.312;2023-03-03T02:52:04;58.35;;;29.02;;
31728;SDS011;18309;43.658;1.312;2023-03-03T02:54:33;62.33;;;30.35;;
31728;SDS011;18309;43.658;1.312;2023-03-03T02:56:59;56.83;;;29.23;;
31728;SDS011;18309;43.658;1.312;2023-03-03T02:59:25;60.10;;;30.42;;
31728;SDS011;18309;43.658;1.312;2023-03-03T03:01:51;61.67;;;30.65;;
31728;SDS011;18309;43.658;1.312;2023-03-03T03:04:21;56.75;;;29.02;;
31728;SDS011;18309;43.658;1.312;2023-03-03T03:06:51;63.90;;;29.70;;
31728;SDS011;18309;43.658;1.312;2023-03-03T03:09:17;60.28;;;30.75;;
31728;SDS011;18309;43.658;1.312;2023-03-03T03:11:45;59.92;;;28.23;;
31728;SDS011;18309;43.658;1.312;2023-03-03T03:14:11;57.88;;;29.27;;
31728;SDS011;18309;43.658;1.312;2023-03-03T03:16:37;63.47;;;30.48;;
31728;SDS011;18309;43.658;1.312;2023-03-03T03:19:04;60.40;;;29.83;;
31728;SDS011;18309;43.658;1.312;2023-03-03T03:21:30;62.80;;;31.45;;
31728;SDS011;18309;43.658;1.312;2023-03-03T03:23:56;64.80;;;33.13;;
31728;SDS011;18309;43.658;1.312;2023-03-03T03:26:22;60.70;;;30.55;;
31728;SDS011;18309;43.658;1.312;2023-03-03T03:28:48;62.80;;;29.52;;
31728;SDS011;18309;43.658;1.312;2023-03-03T03:31:15;59.33;;;30.95;;
31728;SDS011;18309;43.658;1.312;2023-03-03T03:33:41;63.58;;;30.38;;
31728;SDS011;18309;43.658;1.312;2023-03-03T03:36:07;61.88;;;30.80;;
31728;SDS011;18309;43.658;1.312;2023-03-03T03:38:34;60.08;;;30.00;;
31728;SDS011;18309;43.658;1.312;2023-03-03T03:41:01;58.25;;;30.25;;
31728;SDS011;18309;43.658;1.312;2023-03-03T03:43:27;62.33;;;29.38;;
31728;SDS011;18309;43.658;1.312;2023-03-03T03:45:53;54.15;;;28.23;;
31728;SDS011;18309;43.658;1.312;2023-03-03T03:48:19;58.42;;;30.25;;
31728;SDS011;18309;43.658;1.312;2023-03-03T03:50:46;54.50;;;27.83;;
31728;SDS011;18309;43.658;1.312;2023-03-03T03:53:12;60.22;;;28.98;;
31728;SDS011;18309;43.658;1.312;2023-03-03T03:55:38;58.83;;;29.88;;
31728;SDS011;18309;43.658;1.312;2023-03-03T03:58:03;55.78;;;29.58;;
31728;SDS011;18309;43.658;1.312;2023-03-03T04:00:29;54.42;;;28.88;;
31728;SDS011;18309;43.658;1.312;2023-03-03T04:02:55;55.38;;;29.48;;
31728;SDS011;18309;43.658;1.312;2023-03-03T04:05:21;57.28;;;30.08;;
31728;SDS011;18309;43.658;1.312;2023-03-03T04:07:46;59.92;;;29.80;;
31728;SDS011;18309;43.658;1.312;2023-03-03T04:10:12;58.95;;;29.38;;
31728;SDS011;18309;43.658;1.312;2023-03-03T04:12:38;54.20;;;28.85;;
31728;SDS011;18309;43.658;1.312;2023-03-03T04:15:04;52.63;;;28.70;;
31728;SDS011;18309;43.658;1.312;2023-03-03T04:17:31;62.95;;;29.95;;
31728;SDS011;18309;43.658;1.312;2023-03-03T04:19:57;55.67;;;31.23;;
31728;SDS011;18309;43.658;1.312;2023-03-03T04:22:23;56.53;;;30.23;;
31728;SDS011;18309;43.658;1.312;2023-03-03T04:24:48;56.00;;;28.63;;
31728;SDS011;18309;43.658;1.312;2023-03-03T04:27:14;59.85;;;30.75;;
31728;SDS011;18309;43.658;1.312;2023-03-03T04:29:40;57.97;;;30.02;;
31728;SDS011;18309;43.658;1.312;2023-03-03T04:32:06;64.80;;;30.80;;
31728;SDS011;18309;43.658;1.312;2023-03-03T04:34:31;59.58;;;30.38;;
31728;SDS011;18309;43.658;1.312;2023-03-03T04:36:57;58.22;;;31.00;;
31728;SDS011;18309;43.658;1.312;2023-03-03T04:39:23;56.00;;;29.60;;
31728;SDS011;18309;43.658;1.312;2023-03-03T04:41:48;57.83;;;28.75;;
31728;SDS011;18309;43.658;1.312;2023-03-03T04:44:14;55.50;;;29.95;;
31728;SDS011;18309;43.658;1.312;2023-03-03T04:46:40;57.05;;;28.50;;
31728;SDS011;18309;43.658;1.312;2023-03-03T04:49:06;54.92;;;28.77;;
31728;SDS011;18309;43.658;1.312;2023-03-03T04:51:33;59.45;;;30.33;;
31728;SDS011;18309;43.658;1.312;2023-03-03T04:53:58;52.08;;;28.95;;
31728;SDS011;18309;43.658;1.312;2023-03-03T04:56:24;61.25;;;29.25;;
31728;SDS011;18309;43.658;1.312;2023-03-03T04:58:50;54.97;;;28.27;;
31728;SDS011;18309;43.658;1.312;2023-03-03T05:01:16;57.55;;;29.92;;
31728;SDS011;18309;43.658;1.312;2023-03-03T05:03:43;56.55;;;29.70;;
31728;SDS011;18309;43.658;1.312;2023-03-03T05:06:09;56.22;;;29.90;;
31728;SDS011;18309;43.658;1.312;2023-03-03T05:08:35;57.15;;;28.95;;
31728;SDS011;18309;43.658;1.312;2023-03-03T05:11:01;56.00;;;29.38;;
31728;SDS011;18309;43.658;1.312;2023-03-03T05:13:29;56.42;;;29.83;;
31728;SDS011;18309;43.658;1.312;2023-03-03T05:15:55;55.35;;;29.58;;
31728;SDS011;18309;43.658;1.312;2023-03-03T05:18:22;58.20;;;30.30;;
31728;SDS011;18309;43.658;1.312;2023-03-03T05:20:49;63.20;;;29.88;;
31728;SDS011;18309;43.658;1.312;2023-03-03T05:23:16;56.33;;;29.85;;
31728;SDS011;18309;43.658;1.312;2023-03-03T05:25:42;57.10;;;31.05;;
31728;SDS011;18309;43.658;1.312;2023-03-03T05:28:09;54.47;;;28.75;;
31728;SDS011;18309;43.658;1.312;2023-03-03T05:30:35;65.57;;;32.47;;
31728;SDS011;18309;43.658;1.312;2023-03-03T05:33:01;58.78;;;30.33;;
31728;SDS011;18309;43.658;1.312;2023-03-03T05:35:27;59.75;;;30.30;;
31728;SDS011;18309;43.658;1.312;2023-03-03T05:37:53;63.55;;;31.23;;
31728;SDS011;18309;43.658;1.312;2023-03-03T05:40:19;58.25;;;30.55;;
31728;SDS011;18309;43.658;1.312;2023-03-03T05:42:45;57.70;;;29.08;;
31728;SDS011;18309;43.658;1.312;2023-03-03T05:45:11;57.05;;;29.63;;
31728;SDS011;18309;43.658;1.312;2023-03-03T05:47:37;53.63;;;28.98;;
31728;SDS011;18309;43.658;1.312;2023-03-03T05:50:03;59.40;;;30.17;;
31728;SDS011;18309;43.658;1.312;2023-03-03T05:52:29;59.40;;;30.77;;
31728;SDS011;18309;43.658;1.312;2023-03-03T05:54:55;56.35;;;29.98;;
31728;SDS011;18309;43.658;1.312;2023-03-03T05:57:21;60.08;;;29.33;;
31728;SDS011;18309;43.658;1.312;2023-03-03T05:59:47;60.45;;;30.63;;
31728;SDS011;18309;43.658;1.312;2023-03-03T06:02:12;58.47;;;30.10;;
31728;SDS011;18309;43.658;1.312;2023-03-03T06:04:38;62.25;;;31.38;;
31728;SDS011;18309;43.658;1.312;2023-03-03T06:07:04;60.40;;;29.27;;
31728;SDS011;18309;43.658;1.312;2023-03-03T06:09:30;60.60;;;30.60;;
31728;SDS011;18309;43.658;1.312;2023-03-03T06:11:57;62.53;;;30.50;;
31728;SDS011;18309;43.658;1.312;2023-03-03T06:14:22;62.60;;;31.27;;
31728;SDS011;18309;43.658;1.312;2023-03-03T06:16:48;54.40;;;29.73;;
31728;SDS011;18309;43.658;1.312;2023-03-03T06:19:15;68.32;;;30.55;;
31728;SDS011;18309;43.658;1.312;2023-03-03T06:21:41;65.32;;;29.73;;
31728;SDS011;18309;43.658;1.312;2023-03-03T06:24:07;56.05;;;29.50;;
31728;SDS011;18309;43.658;1.312;2023-03-03T06:26:33;58.25;;;29.48;;
31728;SDS011;18309;43.658;1.312;2023-03-03T06:28:59;58.55;;;30.65;;
31728;SDS011;18309;43.658;1.312;2023-03-03T06:31:25;58.45;;;30.90;;
31728;SDS011;18309;43.658;1.312;2023-03-03T06:33:52;61.65;;;31.52;;
31728;SDS011;18309;43.658;1.312;2023-03-03T06:36:18;62.63;;;31.23;;
31728;SDS011;18309;43.658;1.312;2023-03-03T06:38:44;61.45;;;30.17;;
31728;SDS011;18309;43.658;1.312;2023-03-03T06:41:10;60.55;;;30.60;;
31728;SDS011;18309;43.658;1.312;2023-03-03T06:43:36;64.07;;;31.10;;
31728;SDS011;18309;43.658;1.312;2023-03-03T06:46:03;63.22;;;30.50;;
31728;SDS011;18309;43.658;1.312;2023-03-03T06:48:29;63.97;;;32.50;;
31728;SDS011;18309;43.658;1.312;2023-03-03T06:50:57;59.33;;;29.70;;
31728;SDS011;18309;43.658;1.312;2023-03-03T06:53:27;63.20;;;30.15;;
31728;SDS011;18309;43.658;1.312;2023-03-03T06:55:57;57.83;;;30.42;;
31728;SDS011;18309;43.658;1.312;2023-03-03T06:58:23;61.70;;;31.52;;
31728;SDS011;18309;43.658;1.312;2023-03-03T07:00:53;59.03;;;31.35;;
31728;SDS011;18309;43.658;1.312;2023-03-03T07:03:25;63.83;;;31.27;;
31728;SDS011;18309;43.658;1.312;2023-03-03T07:06:00;64.65;;;32.17;;
31728;SDS011;18309;43.658;1.312;2023-03-03T07:08:30;70.43;;;32.42;;
31728;SDS011;18309;43.658;1.312;2023-03-03T07:10:56;67.95;;;32.83;;
31728;SDS011;18309;43.658;1.312;2023-03-03T07:13:31;67.20;;;32.33;;
31728;SDS011;18309;43.658;1.312;2023-03-03T07:15:59;64.80;;;32.83;;
31728;SDS011;18309;43.658;1.312;2023-03-03T07:18:36;60.35;;;31.25;;
31728;SDS011;18309;43.658;1.312;2023-03-03T07:21:17;65.32;;;31.13;;
31728;SDS011;18309;43.658;1.312;2023-03-03T07:23:57;61.10;;;31.08;;
31728;SDS011;18309;43.658;1.312;2023-03-03T07:26:24;70.72;;;32.20;;
31728;SDS011;18309;43.658;1.312;2023-03-03T07:29:00;62.53;;;31.42;;
31728;SDS011;18309;43.658;1.312;2023-03-03T07:31:39;60.70;;;31.00;;
31728;SDS011;18309;43.658;1.312;2023-03-03T07:34:48;55.72;;;29.58;;
31728;SDS011;18309;43.658;1.312;2023-03-03T07:37:03;66.30;;;31.70;;
31728;SDS011;18309;43.658;1.312;2023-03-03T07:40:28;68.13;;;30.90;;
31728;SDS011;18309;43.658;1.312;2023-03-03T07:42:57;63.85;;;30.70;;
31728;SDS011;18309;43.658;1.312;2023-03-03T07:45:27;65.53;;;31.40;;
31728;SDS011;18309;43.658;1.312;2023-03-03T07:50:50;72.00;;;35.05;;
31728;SDS011;18309;43.658;1.312;2023-03-03T07:53:26;78.78;;;36.45;;
31728;SDS011;18309;43.658;1.312;2023-03-03T07:55:58;75.10;;;33.42;;
31728;SDS011;18309;43.658;1.312;2023-03-03T07:58:45;68.85;;;32.83;;
31728;SDS011;18309;43.658;1.312;2023-03-03T08:01:27;63.88;;;33.85;;
31728;SDS011;18309;43.658;1.312;2023-03-03T08:04:12;61.72;;;32.25;;
31728;SDS011;18309;43.658;1.312;2023-03-03T08:06:47;65.30;;;32.97;;
31728;SDS011;18309;43.658;1.312;2023-03-03T08:14:33;62.45;;;32.63;;
31728;SDS011;18309;43.658;1.312;2023-03-03T08:17:01;65.68;;;33.55;;
31728;SDS011;18309;43.658;1.312;2023-03-03T08:19:31;70.00;;;33.45;;
31728;SDS011;18309;43.658;1.312;2023-03-03T08:22:14;66.80;;;32.83;;
31728;SDS011;18309;43.658;1.312;2023-03-03T08:24:48;65.65;;;34.20;;
31728;SDS011;18309;43.658;1.312;2023-03-03T08:27:14;66.50;;;33.53;;
31728;SDS011;18309;43.658;1.312;2023-03-03T08:29:40;69.28;;;32.20;;
31728;SDS011;18309;43.658;1.312;2023-03-03T08:32:06;64.55;;;32.40;;
31728;SDS011;18309;43.658;1.312;2023-03-03T08:34:31;65.70;;;32.90;;
31728;SDS011;18309;43.658;1.312;2023-03-03T08:36:57;63.50;;;33.00;;
31728;SDS011;18309;43.658;1.312;2023-03-03T08:39:23;71.53;;;34.13;;
31728;SDS011;18309;43.658;1.312;2023-03-03T08:41:48;66.35;;;32.78;;
31728;SDS011;18309;43.658;1.312;2023-03-03T08:44:14;65.78;;;32.65;;
31728;SDS011;18309;43.658;1.312;2023-03-03T08:46:40;62.97;;;31.83;;
31728;SDS011;18309;43.658;1.312;2023-03-03T08:49:05;61.25;;;33.63;;
31728;SDS011;18309;43.658;1.312;2023-03-03T08:51:31;63.03;;;32.88;;
31728;SDS011;18309;43.658;1.312;2023-03-03T08:53:58;70.97;;;34.97;;
31728;SDS011;18309;43.658;1.312;2023-03-03T08:56:24;66.78;;;32.85;;
31728;SDS011;18309;43.658;1.312;2023-03-03T08:58:50;67.60;;;33.88;;
31728;SDS011;18309;43.658;1.312;2023-03-03T09:01:16;66.80;;;33.78;;
31728;SDS011;18309;43.658;1.312;2023-03-03T09:03:42;68.75;;;33.97;;
31728;SDS011;18309;43.658;1.312;2023-03-03T09:06:09;63.55;;;32.80;;
31728;SDS011;18309;43.658;1.312;2023-03-03T09:08:35;64.63;;;32.70;;
31728;SDS011;18309;43.658;1.312;2023-03-03T09:11:01;69.95;;;34.63;;
31728;SDS011;18309;43.658;1.312;2023-03-03T09:13:28;63.33;;;32.95;;
31728;SDS011;18309;43.658;1.312;2023-03-03T09:15:55;63.67;;;33.83;;
31728;SDS011;18309;43.658;1.312;2023-03-03T09:18:30;71.43;;;35.10;;
31728;SDS011;18309;43.658;1.312;2023-03-03T09:21:00;68.93;;;34.28;;
31728;SDS011;18309;43.658;1.312;2023-03-03T09:25:55;67.25;;;33.05;;
31728;SDS011;18309;43.658;1.312;2023-03-03T09:28:26;64.47;;;32.30;;
31728;SDS011;18309;43.658;1.312;2023-03-03T09:30:54;68.78;;;35.25;;
31728;SDS011;18309;43.658;1.312;2023-03-03T09:35:52;59.35;;;32.47;;
31728;SDS011;18309;43.658;1.312;2023-03-03T09:38:30;69.65;;;34.83;;
31728;SDS011;18309;43.658;1.312;2023-03-03T09:44:04;70.95;;;34.65;;
31728;SDS011;18309;43.658;1.312;2023-03-03T09:49:34;63.67;;;33.35;;
31728;SDS011;18309;43.658;1.312;2023-03-03T09:58:23;66.60;;;34.28;;
31728;SDS011;18309;43.658;1.312;2023-03-03T10:09:20;61.60;;;33.45;;
31728;SDS011;18309;43.658;1.312;2023-03-03T10:14:54;60.63;;;32.72;;
31728;SDS011;18309;43.658;1.312;2023-03-03T10:34:28;56.60;;;29.98;;
31728;SDS011;18309;43.658;1.312;2023-03-03T11:05:01;66.80;;;30.92;;
31728;SDS011;18309;43.658;1.312;2023-03-03T11:07:43;60.38;;;31.00;;
31728;SDS011;18309;43.658;1.312;2023-03-03T11:10:47;55.28;;;30.40;;
31728;SDS011;18309;43.658;1.312;2023-03-03T11:15:54;59.13;;;30.45;;
31728;SDS011;18309;43.658;1.312;2023-03-03T11:26:55;62.28;;;29.55;;
31728;SDS011;18309;43.658;1.312;2023-03-03T11:29:45;54.65;;;27.60;;
31728;SDS011;18309;43.658;1.312;2023-03-03T11:35:24;55.90;;;28.90;;
31728;SDS011;18309;43.658;1.312;2023-03-03T11:43:26;55.20;;;29.08;;
31728;SDS011;18309;43.658;1.312;2023-03-03T11:46:15;55.58;;;28.58;;
31728;SDS011;18309;43.658;1.312;2023-03-03T11:54:09;59.40;;;28.95;;
31728;SDS011;18309;43.658;1.312;2023-03-03T11:57:13;54.33;;;26.48;;
31728;SDS011;18309;43.658;1.312;2023-03-03T12:11:37;49.17;;;24.42;;
31728;SDS011;18309;43.658;1.312;2023-03-03T12:16:55;51.58;;;24.95;;
31728;SDS011;18309;43.658;1.312;2023-03-03T12:22:21;53.78;;;25.65;;
31728;SDS011;18309;43.658;1.312;2023-03-03T12:25:24;47.30;;;24.50;;
31728;SDS011;18309;43.658;1.312;2023-03-03T12:36:23;54.65;;;27.40;;
31728;SDS011;18309;43.658;1.312;2023-03-03T12:44:46;59.60;;;28.02;;
31728;SDS011;18309;43.658;1.312;2023-03-03T13:02:04;50.80;;;25.20;;
31728;SDS011;18309;43.658;1.312;2023-03-03T13:04:29;57.10;;;27.75;;
31728;SDS011;18309;43.658;1.312;2023-03-03T13:07:11;50.15;;;27.20;;
31728;SDS011;18309;43.658;1.312;2023-03-03T13:10:34;52.97;;;27.40;;
31728;SDS011;18309;43.658;1.312;2023-03-03T13:15:34;70.75;;;28.52;;
31728;SDS011;18309;43.658;1.312;2023-03-03T13:18:23;52.58;;;27.00;;
31728;SDS011;18309;43.658;1.312;2023-03-03T13:21:19;50.25;;;27.75;;
31728;SDS011;18309;43.658;1.312;2023-03-03T13:26:39;46.30;;;25.08;;
31728;SDS011;18309;43.658;1.312;2023-03-03T13:37:26;44.45;;;24.58;;
31728;SDS011;18309;43.658;1.312;2023-03-03T13:40:12;48.67;;;26.10;;
31728;SDS011;18309;43.658;1.312;2023-03-03T13:45:16;45.03;;;23.92;;
31728;SDS011;18309;43.658;1.312;2023-03-03T13:56:42;45.85;;;25.00;;
31728;SDS011;18309;43.658;1.312;2023-03-03T14:07:06;50.45;;;26.42;;
31728;SDS011;18309;43.658;1.312;2023-03-03T14:10:04;50.42;;;27.88;;
31728;SDS011;18309;43.658;1.312;2023-03-03T14:12:37;53.75;;;27.80;;
31728;SDS011;18309;43.658;1.312;2023-03-03T14:18:56;52.42;;;27.80;;
31728;SDS011;18309;43.658;1.312;2023-03-03T14:21:32;57.85;;;28.05;;
31728;SDS011;18309;43.658;1.312;2023-03-03T14:26:59;55.20;;;28.83;;
31728;SDS011;18309;43.658;1.312;2023-03-03T14:31:51;49.53;;;28.52;;
31728;SDS011;18309;43.658;1.312;2023-03-03T14:37:23;52.30;;;26.95;;
31728;SDS011;18309;43.658;1.312;2023-03-03T14:42:38;53.28;;;27.30;;
31728;SDS011;18309;43.658;1.312;2023-03-03T14:48:36;53.15;;;28.25;;
31728;SDS011;18309;43.658;1.312;2023-03-03T14:51:25;53.10;;;28.27;;
31728;SDS011;18309;43.658;1.312;2023-03-03T14:53:53;65.72;;;32.10;;
31728;SDS011;18309;43.658;1.312;2023-03-03T14:58:49;61.42;;;32.38;;
31728;SDS011;18309;43.658;1.312;2023-03-03T15:04:02;52.53;;;28.42;;
31728;SDS011;18309;43.658;1.312;2023-03-03T15:06:48;52.58;;;27.23;;
31728;SDS011;18309;43.658;1.312;2023-03-03T15:11:43;45.30;;;25.88;;
31728;SDS011;18309;43.658;1.312;2023-03-03T15:14:14;48.15;;;26.27;;
31728;SDS011;18309;43.658;1.312;2023-03-03T15:16:41;53.53;;;27.33;;
31728;SDS011;18309;43.658;1.312;2023-03-03T15:24:49;51.28;;;27.05;;
31728;SDS011;18309;43.658;1.312;2023-03-03T15:27:29;53.15;;;27.08;;
31728;SDS011;18309;43.658;1.312;2023-03-03T15:30:28;51.65;;;27.95;;
31728;SDS011;18309;43.658;1.312;2023-03-03T15:33:04;51.88;;;27.25;;
31728;SDS011;18309;43.658;1.312;2023-03-03T15:38:43;47.50;;;25.63;;
31728;SDS011;18309;43.658;1.312;2023-03-03T15:41:25;52.47;;;27.58;;
31728;SDS011;18309;43.658;1.312;2023-03-03T15:44:05;55.03;;;27.13;;
31728;SDS011;18309;43.658;1.312;2023-03-03T15:46:50;50.28;;;26.83;;
31728;SDS011;18309;43.658;1.312;2023-03-03T15:55:24;51.90;;;25.15;;
31728;SDS011;18309;43.658;1.312;2023-03-03T16:03:35;46.35;;;25.45;;
31728;SDS011;18309;43.658;1.312;2023-03-03T16:06:05;46.10;;;24.77;;
31728;SDS011;18309;43.658;1.312;2023-03-03T16:09:05;42.17;;;23.65;;
31728;SDS011;18309;43.658;1.312;2023-03-03T16:14:53;49.45;;;23.92;;
31728;SDS011;18309;43.658;1.312;2023-03-03T16:17:52;43.97;;;22.02;;
31728;SDS011;18309;43.658;1.312;2023-03-03T16:23:32;41.65;;;21.75;;
31728;SDS011;18309;43.658;1.312;2023-03-03T16:31:18;42.13;;;22.23;;
31728;SDS011;18309;43.658;1.312;2023-03-03T16:39:44;39.78;;;22.33;;
31728;SDS011;18309;43.658;1.312;2023-03-03T16:42:19;39.85;;;21.63;;
31728;SDS011;18309;43.658;1.312;2023-03-03T17:01:04;47.70;;;25.17;;
31728;SDS011;18309;43.658;1.312;2023-03-03T17:09:37;49.38;;;26.48;;
31728;SDS011;18309;43.658;1.312;2023-03-03T17:12:45;55.45;;;27.40;;
31728;SDS011;18309;43.658;1.312;2023-03-03T17:20:45;47.38;;;25.52;;
31728;SDS011;18309;43.658;1.312;2023-03-03T17:42:46;56.88;;;27.83;;
31728;SDS011;18309;43.658;1.312;2023-03-03T17:45:16;57.65;;;28.63;;
31728;SDS011;18309;43.658;1.312;2023-03-03T17:58:26;65.53;;;31.35;;
31728;SDS011;18309;43.658;1.312;2023-03-03T18:14:54;80.43;;;34.50;;
31728;SDS011;18309;43.658;1.312;2023-03-03T18:29:11;84.67;;;37.60;;
31728;SDS011;18309;43.658;1.312;2023-03-03T18:36:55;77.10;;;34.67;;
31728;SDS011;18309;43.658;1.312;2023-03-03T18:39:36;73.65;;;34.95;;
31728;SDS011;18309;43.658;1.312;2023-03-03T18:42:48;78.60;;;36.15;;
31728;SDS011;18309;43.658;1.312;2023-03-03T18:44:54;64.28;;;32.25;;
31728;SDS011;18309;43.658;1.312;2023-03-03T18:47:43;78.28;;;34.63;;
31728;SDS011;18309;43.658;1.312;2023-03-03T18:53:20;69.53;;;32.95;;
31728;SDS011;18309;43.658;1.312;2023-03-03T18:55:52;68.28;;;32.30;;
31728;SDS011;18309;43.658;1.312;2023-03-03T19:00:44;67.85;;;32.47;;
31728;SDS011;18309;43.658;1.312;2023-03-03T19:03:23;81.50;;;36.97;;
31728;SDS011;18309;43.658;1.312;2023-03-03T19:08:59;97.13;;;45.45;;
31728;SDS011;18309;43.658;1.312;2023-03-03T19:11:41;107.63;;;47.38;;
31728;SDS011;18309;43.658;1.312;2023-03-03T19:20:04;99.70;;;44.50;;
31728;SDS011;18309;43.658;1.312;2023-03-03T19:22:48;93.70;;;43.53;;
31728;SDS011;18309;43.658;1.312;2023-03-03T19:47:26;77.95;;;35.85;;
31728;SDS011;18309;43.658;1.312;2023-03-03T19:55:21;85.82;;;38.03;;
31728;SDS011;18309;43.658;1.312;2023-03-03T20:00:37;91.95;;;38.67;;
31728;SDS011;18309;43.658;1.312;2023-03-03T20:15:04;81.85;;;35.75;;
31728;SDS011;18309;43.658;1.312;2023-03-03T20:23:15;87.43;;;39.22;;
31728;SDS011;18309;43.658;1.312;2023-03-03T20:25:59;83.03;;;36.90;;
31728;SDS011;18309;43.658;1.312;2023-03-03T20:31:31;79.72;;;36.65;;
31728;SDS011;18309;43.658;1.312;2023-03-03T20:39:19;81.82;;;37.53;;
31728;SDS011;18309;43.658;1.312;2023-03-03T20:59:10;67.72;;;33.25;;
31728;SDS011;18309;43.658;1.312;2023-03-03T21:01:52;105.50;;;49.28;;
31728;SDS011;18309;43.658;1.312;2023-03-03T21:04:44;106.28;;;50.80;;
31728;SDS011;18309;43.658;1.312;2023-03-03T21:07:21;96.32;;;46.88;;
31728;SDS011;18309;43.658;1.312;2023-03-03T21:09:48;92.95;;;45.35;;
31728;SDS011;18309;43.658;1.312;2023-03-03T21:12:27;88.53;;;45.85;;
31728;SDS011;18309;43.658;1.312;2023-03-03T21:15:02;79.78;;;38.70;;
31728;SDS011;18309;43.658;1.312;2023-03-03T21:17:48;78.60;;;38.90;;
31728;SDS011;18309;43.658;1.312;2023-03-03T21:22:50;69.78;;;35.45;;
31728;SDS011;18309;43.658;1.312;2023-03-03T21:33:41;72.50;;;35.20;;
31728;SDS011;18309;43.658;1.312;2023-03-03T21:36:11;74.65;;;33.40;;
31728;SDS011;18309;43.658;1.312;2023-03-03T21:38:40;68.40;;;33.17;;
31728;SDS011;18309;43.658;1.312;2023-03-03T21:47:02;85.57;;;38.63;;
31728;SDS011;18309;43.658;1.312;2023-03-03T21:49:28;85.38;;;36.28;;
31728;SDS011;18309;43.658;1.312;2023-03-03T21:51:54;70.05;;;33.55;;
31728;SDS011;18309;43.658;1.312;2023-03-03T21:54:21;68.35;;;32.72;;
31728;SDS011;18309;43.658;1.312;2023-03-03T21:56:47;71.25;;;33.45;;
31728;SDS011;18309;43.658;1.312;2023-03-03T21:59:14;82.07;;;37.17;;
31728;SDS011;18309;43.658;1.312;2023-03-03T22:01:40;81.05;;;36.67;;
31728;SDS011;18309;43.658;1.312;2023-03-03T22:04:06;101.90;;;41.40;;
31728;SDS011;18309;43.658;1.312;2023-03-03T22:06:31;93.75;;;36.92;;
31728;SDS011;18309;43.658;1.312;2023-03-03T22:08:57;88.00;;;36.47;;
31728;SDS011;18309;43.658;1.312;2023-03-03T22:11:23;79.75;;;34.78;;
31728;SDS011;18309;43.658;1.312;2023-03-03T22:13:48;80.18;;;34.03;;
31728;SDS011;18309;43.658;1.312;2023-03-03T22:16:14;80.10;;;37.25;;
31728;SDS011;18309;43.658;1.312;2023-03-03T22:18:40;80.03;;;37.00;;
31728;SDS011;18309;43.658;1.312;2023-03-03T22:21:05;79.57;;;36.33;;
31728;SDS011;18309;43.658;1.312;2023-03-03T22:23:31;73.88;;;33.88;;
31728;SDS011;18309;43.658;1.312;2023-03-03T22:25:57;74.38;;;33.58;;
31728;SDS011;18309;43.658;1.312;2023-03-03T22:28:23;68.90;;;31.02;;